sensor_id;sensor_type;location;lat;lon;timestamp;temperature;humidity
1405;DHT22;697;51.114;6.542;2023-02-28T00:00:11;3.70;78.50
1405;DHT22;697;51.114;6.542;2023-02-28T00:02:39;3.60;78.40
1405;DHT22;697;51.114;6.542;2023-02-28T00:05:07;3.70;78.40
1405;DHT22;697;51.114;6.542;2023-02-28T00:07:34;3.60;78.30
1405;DHT22;697;51.114;6.542;2023-02-28T00:10:01;3.60;78.50
1405;DHT22;697;51.114;6.542;2023-02-28T00:12:28;3.60;78.60
1405;DHT22;697;51.114;6.542;2023-02-28T00:14:56;3.60;78.60
1405;DHT22;697;51.114;6.542;2023-02-28T00:17:23;3.60;78.90
1405;DHT22;697;51.114;6.542;2023-02-28T00:19:51;3.50;78.90
1405;DHT22;697;51.114;6.542;2023-02-28T00:22:21;3.50;79.10
1405;DHT22;697;51.114;6.542;2023-02-28T00:24:48;3.50;79.40
1405;DHT22;697;51.114;6.542;2023-02-28T00:27:14;3.50;79.70
1405;DHT22;697;51.114;6.542;2023-02-28T00:29:41;3.50;79.80
1405;DHT22;697;51.114;6.542;2023-02-28T00:32:09;3.40;79.60
1405;DHT22;697;51.114;6.542;2023-02-28T00:34:36;3.40;79.90
1405;DHT22;697;51.114;6.542;2023-02-28T00:37:04;3.40;79.80
1405;DHT22;697;51.114;6.542;2023-02-28T00:39:32;3.40;80.00
1405;DHT22;697;51.114;6.542;2023-02-28T00:41:59;3.40;80.20
1405;DHT22;697;51.114;6.542;2023-02-28T00:44:26;3.40;80.10
1405;DHT22;697;51.114;6.542;2023-02-28T00:46:53;3.40;80.20
1405;DHT22;697;51.114;6.542;2023-02-28T00:49:22;3.40;80.40
1405;DHT22;697;51.114;6.542;2023-02-28T00:51:49;3.40;80.60
1405;DHT22;697;51.114;6.542;2023-02-28T00:54:16;3.40;80.80
1405;DHT22;697;51.114;6.542;2023-02-28T00:56:43;3.40;80.90
1405;DHT22;697;51.114;6.542;2023-02-28T00:59:11;3.40;81.20
1405;DHT22;697;51.114;6.542;2023-02-28T01:01:38;3.40;81.30
1405;DHT22;697;51.114;6.542;2023-02-28T01:04:05;3.40;81.30
1405;DHT22;697;51.114;6.542;2023-02-28T01:06:33;3.30;81.30
1405;DHT22;697;51.114;6.542;2023-02-28T01:09:00;3.30;81.50
1405;DHT22;697;51.114;6.542;2023-02-28T01:11:26;3.30;81.60
1405;DHT22;697;51.114;6.542;2023-02-28T01:13:53;3.30;81.70
1405;DHT22;697;51.114;6.542;2023-02-28T01:16:20;3.30;81.70
1405;DHT22;697;51.114;6.542;2023-02-28T01:18:47;3.30;81.70
1405;DHT22;697;51.114;6.542;2023-02-28T01:21:15;3.30;81.70
1405;DHT22;697;51.114;6.542;2023-02-28T01:23:44;3.30;81.50
1405;DHT22;697;51.114;6.542;2023-02-28T01:26:13;3.30;81.30
1405;DHT22;697;51.114;6.542;2023-02-28T01:28:41;3.20;81.30
1405;DHT22;697;51.114;6.542;2023-02-28T01:31:08;3.20;81.60
1405;DHT22;697;51.114;6.542;2023-02-28T01:33:35;3.20;82.00
1405;DHT22;697;51.114;6.542;2023-02-28T01:36:04;3.20;82.10
1405;DHT22;697;51.114;6.542;2023-02-28T01:38:31;3.20;82.20
1405;DHT22;697;51.114;6.542;2023-02-28T01:41:00;3.20;82.30
1405;DHT22;697;51.114;6.542;2023-02-28T01:43:29;3.20;82.20
1405;DHT22;697;51.114;6.542;2023-02-28T01:45:57;3.10;82.00
1405;DHT22;697;51.114;6.542;2023-02-28T01:48:27;3.10;81.80
1405;DHT22;697;51.114;6.542;2023-02-28T01:50:58;3.10;82.10
1405;DHT22;697;51.114;6.542;2023-02-28T01:53:31;3.10;82.40
1405;DHT22;697;51.114;6.542;2023-02-28T01:56:00;3.10;82.50
1405;DHT22;697;51.114;6.542;2023-02-28T01:58:30;3.10;82.60
1405;DHT22;697;51.114;6.542;2023-02-28T02:00:57;3.10;82.40
1405;DHT22;697;51.114;6.542;2023-02-28T02:03:24;3.00;82.00
1405;DHT22;697;51.114;6.542;2023-02-28T02:05:51;3.00;82.10
1405;DHT22;697;51.114;6.542;2023-02-28T02:08:20;3.00;82.10
1405;DHT22;697;51.114;6.542;2023-02-28T02:10:50;3.00;82.20
1405;DHT22;697;51.114;6.542;2023-02-28T02:13:28;2.90;82.20
1405;DHT22;697;51.114;6.542;2023-02-28T02:16:03;2.90;82.40
1405;DHT22;697;51.114;6.542;2023-02-28T02:18:37;2.90;82.70
1405;DHT22;697;51.114;6.542;2023-02-28T02:24:42;2.90;83.20
1405;DHT22;697;51.114;6.542;2023-02-28T02:27:26;2.90;83.50
1405;DHT22;697;51.114;6.542;2023-02-28T02:30:20;2.80;83.50
1405;DHT22;697;51.114;6.542;2023-02-28T02:33:10;2.80;83.60
1405;DHT22;697;51.114;6.542;2023-02-28T02:35:43;2.80;83.70
1405;DHT22;697;51.114;6.542;2023-02-28T02:38:20;2.80;84.00
1405;DHT22;697;51.114;6.542;2023-02-28T02:40:56;2.80;84.20
1405;DHT22;697;51.114;6.542;2023-02-28T02:43:29;2.70;84.10
1405;DHT22;697;51.114;6.542;2023-02-28T02:46:01;2.70;84.50
1405;DHT22;697;51.114;6.542;2023-02-28T02:48:33;2.70;84.80
1405;DHT22;697;51.114;6.542;2023-02-28T02:51:04;2.70;85.20
1405;DHT22;697;51.114;6.542;2023-02-28T02:53:40;2.70;85.70
1405;DHT22;697;51.114;6.542;2023-02-28T02:56:08;2.60;85.90
1405;DHT22;697;51.114;6.542;2023-02-28T02:58:38;2.70;86.40
1405;DHT22;697;51.114;6.542;2023-02-28T03:01:08;2.60;86.40
1405;DHT22;697;51.114;6.542;2023-02-28T03:03:37;2.60;86.60
1405;DHT22;697;51.114;6.542;2023-02-28T03:06:05;2.60;86.80
1405;DHT22;697;51.114;6.542;2023-02-28T03:08:36;2.60;87.00
1405;DHT22;697;51.114;6.542;2023-02-28T03:11:12;2.50;87.20
1405;DHT22;697;51.114;6.542;2023-02-28T03:13:52;2.60;87.70
1405;DHT22;697;51.114;6.542;2023-02-28T03:16:32;2.50;87.60
1405;DHT22;697;51.114;6.542;2023-02-28T03:19:10;2.50;87.70
1405;DHT22;697;51.114;6.542;2023-02-28T03:21:49;2.50;87.80
1405;DHT22;697;51.114;6.542;2023-02-28T03:24:24;2.50;88.10
1405;DHT22;697;51.114;6.542;2023-02-28T03:26:57;2.40;88.30
1405;DHT22;697;51.114;6.542;2023-02-28T03:29:33;2.40;88.20
1405;DHT22;697;51.114;6.542;2023-02-28T03:32:04;2.40;88.20
1405;DHT22;697;51.114;6.542;2023-02-28T03:34:35;2.30;88.20
1405;DHT22;697;51.114;6.542;2023-02-28T03:37:07;2.30;88.20
1405;DHT22;697;51.114;6.542;2023-02-28T03:39:37;2.30;88.40
1405;DHT22;697;51.114;6.542;2023-02-28T03:42:09;2.30;88.40
1405;DHT22;697;51.114;6.542;2023-02-28T03:44:40;2.30;88.40
1405;DHT22;697;51.114;6.542;2023-02-28T03:47:10;2.20;88.40
1405;DHT22;697;51.114;6.542;2023-02-28T03:49:41;2.20;88.70
1405;DHT22;697;51.114;6.542;2023-02-28T03:52:10;2.20;88.80
1405;DHT22;697;51.114;6.542;2023-02-28T03:54:42;2.20;88.90
1405;DHT22;697;51.114;6.542;2023-02-28T03:57:15;2.20;89.10
1405;DHT22;697;51.114;6.542;2023-02-28T03:59:47;2.20;89.30
1405;DHT22;697;51.114;6.542;2023-02-28T04:02:14;2.20;89.60
1405;DHT22;697;51.114;6.542;2023-02-28T04:04:41;2.10;89.80
1405;DHT22;697;51.114;6.542;2023-02-28T04:07:15;2.10;90.00
1405;DHT22;697;51.114;6.542;2023-02-28T04:09:42;2.10;90.20
1405;DHT22;697;51.114;6.542;2023-02-28T04:12:09;2.10;90.30
1405;DHT22;697;51.114;6.542;2023-02-28T04:14:36;2.00;90.50
1405;DHT22;697;51.114;6.542;2023-02-28T04:17:03;2.10;90.90
1405;DHT22;697;51.114;6.542;2023-02-28T04:19:29;2.10;91.10
1405;DHT22;697;51.114;6.542;2023-02-28T04:21:56;2.10;91.10
1405;DHT22;697;51.114;6.542;2023-02-28T04:24:25;2.10;91.10
1405;DHT22;697;51.114;6.542;2023-02-28T04:26:54;2.10;91.20
1405;DHT22;697;51.114;6.542;2023-02-28T04:29:23;2.00;91.10
1405;DHT22;697;51.114;6.542;2023-02-28T04:31:50;2.10;91.20
1405;DHT22;697;51.114;6.542;2023-02-28T04:34:18;2.00;91.10
1405;DHT22;697;51.114;6.542;2023-02-28T04:36:45;2.00;91.10
1405;DHT22;697;51.114;6.542;2023-02-28T04:39:14;2.00;91.10
1405;DHT22;697;51.114;6.542;2023-02-28T04:41:42;2.10;91.20
1405;DHT22;697;51.114;6.542;2023-02-28T04:44:09;2.00;91.20
1405;DHT22;697;51.114;6.542;2023-02-28T04:46:36;2.00;91.20
1405;DHT22;697;51.114;6.542;2023-02-28T04:49:03;2.00;91.30
1405;DHT22;697;51.114;6.542;2023-02-28T04:51:29;2.00;91.30
1405;DHT22;697;51.114;6.542;2023-02-28T04:53:56;2.00;91.20
1405;DHT22;697;51.114;6.542;2023-02-28T04:56:23;2.00;91.20
1405;DHT22;697;51.114;6.542;2023-02-28T04:58:51;2.00;91.20
1405;DHT22;697;51.114;6.542;2023-02-28T05:01:21;2.00;91.60
1405;DHT22;697;51.114;6.542;2023-02-28T05:03:48;2.00;91.20
1405;DHT22;697;51.114;6.542;2023-02-28T05:06:16;2.00;91.20
1405;DHT22;697;51.114;6.542;2023-02-28T05:08:43;2.00;91.10
1405;DHT22;697;51.114;6.542;2023-02-28T05:11:15;2.00;91.00
1405;DHT22;697;51.114;6.542;2023-02-28T05:13:42;2.00;91.00
1405;DHT22;697;51.114;6.542;2023-02-28T05:16:10;2.00;90.90
1405;DHT22;697;51.114;6.542;2023-02-28T05:18:36;1.90;90.80
1405;DHT22;697;51.114;6.542;2023-02-28T05:21:03;2.00;90.70
1405;DHT22;697;51.114;6.542;2023-02-28T05:23:30;1.90;90.60
1405;DHT22;697;51.114;6.542;2023-02-28T05:25:57;1.90;90.50
1405;DHT22;697;51.114;6.542;2023-02-28T05:28:24;1.90;90.50
1405;DHT22;697;51.114;6.542;2023-02-28T05:30:50;1.90;90.50
1405;DHT22;697;51.114;6.542;2023-02-28T05:33:18;1.90;90.50
1405;DHT22;697;51.114;6.542;2023-02-28T05:35:45;1.80;90.40
1405;DHT22;697;51.114;6.542;2023-02-28T05:38:12;1.80;90.40
1405;DHT22;697;51.114;6.542;2023-02-28T05:40:39;1.80;90.30
1405;DHT22;697;51.114;6.542;2023-02-28T05:43:07;1.80;90.20
1405;DHT22;697;51.114;6.542;2023-02-28T05:45:35;1.70;90.10
1405;DHT22;697;51.114;6.542;2023-02-28T05:48:02;1.70;90.10
1405;DHT22;697;51.114;6.542;2023-02-28T05:50:30;1.70;90.10
1405;DHT22;697;51.114;6.542;2023-02-28T05:52:57;1.60;90.10
1405;DHT22;697;51.114;6.542;2023-02-28T05:55:23;1.60;90.20
1405;DHT22;697;51.114;6.542;2023-02-28T05:57:50;1.60;90.30
1405;DHT22;697;51.114;6.542;2023-02-28T06:00:17;1.60;90.40
1405;DHT22;697;51.114;6.542;2023-02-28T06:02:44;1.60;90.40
1405;DHT22;697;51.114;6.542;2023-02-28T06:05:13;1.60;90.40
1405;DHT22;697;51.114;6.542;2023-02-28T06:07:42;1.60;90.50
1405;DHT22;697;51.114;6.542;2023-02-28T06:10:10;1.60;90.50
1405;DHT22;697;51.114;6.542;2023-02-28T06:12:37;1.50;90.50
1405;DHT22;697;51.114;6.542;2023-02-28T06:15:05;1.50;90.50
1405;DHT22;697;51.114;6.542;2023-02-28T06:17:31;1.50;90.60
1405;DHT22;697;51.114;6.542;2023-02-28T06:19:58;1.50;90.60
1405;DHT22;697;51.114;6.542;2023-02-28T06:22:25;1.50;90.70
1405;DHT22;697;51.114;6.542;2023-02-28T06:24:53;1.50;90.80
1405;DHT22;697;51.114;6.542;2023-02-28T06:27:20;1.40;91.10
1405;DHT22;697;51.114;6.542;2023-02-28T06:29:47;1.40;90.90
1405;DHT22;697;51.114;6.542;2023-02-28T06:32:14;1.40;91.00
1405;DHT22;697;51.114;6.542;2023-02-28T06:34:41;1.40;91.30
1405;DHT22;697;51.114;6.542;2023-02-28T06:37:07;1.40;91.30
1405;DHT22;697;51.114;6.542;2023-02-28T06:39:34;1.40;91.40
1405;DHT22;697;51.114;6.542;2023-02-28T06:42:02;1.40;91.40
1405;DHT22;697;51.114;6.542;2023-02-28T06:44:29;1.40;91.50
1405;DHT22;697;51.114;6.542;2023-02-28T06:47:01;1.40;91.50
1405;DHT22;697;51.114;6.542;2023-02-28T06:49:29;1.40;91.60
1405;DHT22;697;51.114;6.542;2023-02-28T06:51:55;1.40;91.60
1405;DHT22;697;51.114;6.542;2023-02-28T06:54:22;1.40;91.60
1405;DHT22;697;51.114;6.542;2023-02-28T06:56:49;1.40;91.70
1405;DHT22;697;51.114;6.542;2023-02-28T06:59:17;1.40;91.60
1405;DHT22;697;51.114;6.542;2023-02-28T07:01:44;1.50;91.70
1405;DHT22;697;51.114;6.542;2023-02-28T07:04:11;1.50;92.00
1405;DHT22;697;51.114;6.542;2023-02-28T07:06:38;1.50;91.60
1405;DHT22;697;51.114;6.542;2023-02-28T07:09:05;1.50;91.60
1405;DHT22;697;51.114;6.542;2023-02-28T07:11:32;1.50;91.50
1405;DHT22;697;51.114;6.542;2023-02-28T07:13:59;1.50;91.50
1405;DHT22;697;51.114;6.542;2023-02-28T07:16:27;1.60;91.50
1405;DHT22;697;51.114;6.542;2023-02-28T07:18:54;1.60;91.40
1405;DHT22;697;51.114;6.542;2023-02-28T07:21:21;1.60;91.40
1405;DHT22;697;51.114;6.542;2023-02-28T07:23:48;1.60;91.40
1405;DHT22;697;51.114;6.542;2023-02-28T07:26:17;1.70;91.30
1405;DHT22;697;51.114;6.542;2023-02-28T07:28:45;1.70;91.20
1405;DHT22;697;51.114;6.542;2023-02-28T07:31:13;1.70;91.20
1405;DHT22;697;51.114;6.542;2023-02-28T07:33:42;1.70;91.10
1405;DHT22;697;51.114;6.542;2023-02-28T07:36:11;1.70;91.10
1405;DHT22;697;51.114;6.542;2023-02-28T07:38:41;1.70;91.10
1405;DHT22;697;51.114;6.542;2023-02-28T07:41:09;1.80;91.10
1405;DHT22;697;51.114;6.542;2023-02-28T07:43:36;1.80;91.10
1405;DHT22;697;51.114;6.542;2023-02-28T07:46:03;1.90;91.00
1405;DHT22;697;51.114;6.542;2023-02-28T07:48:30;1.90;90.80
1405;DHT22;697;51.114;6.542;2023-02-28T07:50:59;2.00;90.80
1405;DHT22;697;51.114;6.542;2023-02-28T07:53:26;2.10;90.60
1405;DHT22;697;51.114;6.542;2023-02-28T07:55:55;2.10;90.60
1405;DHT22;697;51.114;6.542;2023-02-28T07:58:22;2.20;90.50
1405;DHT22;697;51.114;6.542;2023-02-28T08:00:49;2.20;90.40
1405;DHT22;697;51.114;6.542;2023-02-28T08:03:16;2.20;89.80
1405;DHT22;697;51.114;6.542;2023-02-28T08:05:43;2.20;89.20
1405;DHT22;697;51.114;6.542;2023-02-28T08:08:11;2.30;89.00
1405;DHT22;697;51.114;6.542;2023-02-28T08:10:38;2.30;88.10
1405;DHT22;697;51.114;6.542;2023-02-28T08:13:04;2.40;87.90
1405;DHT22;697;51.114;6.542;2023-02-28T08:15:31;2.50;87.30
1405;DHT22;697;51.114;6.542;2023-02-28T08:17:58;2.60;86.60
1405;DHT22;697;51.114;6.542;2023-02-28T08:20:26;2.60;85.20
1405;DHT22;697;51.114;6.542;2023-02-28T08:22:52;2.70;83.10
1405;DHT22;697;51.114;6.542;2023-02-28T08:25:20;2.70;81.60
1405;DHT22;697;51.114;6.542;2023-02-28T08:27:47;2.80;79.50
1405;DHT22;697;51.114;6.542;2023-02-28T08:30:16;2.80;78.60
1405;DHT22;697;51.114;6.542;2023-02-28T08:32:43;2.90;79.30
1405;DHT22;697;51.114;6.542;2023-02-28T08:35:10;3.00;79.60
1405;DHT22;697;51.114;6.542;2023-02-28T08:37:36;3.00;78.70
1405;DHT22;697;51.114;6.542;2023-02-28T08:40:04;3.10;77.90
1405;DHT22;697;51.114;6.542;2023-02-28T08:42:33;3.20;76.90
1405;DHT22;697;51.114;6.542;2023-02-28T08:45:00;3.20;77.10
1405;DHT22;697;51.114;6.542;2023-02-28T08:47:26;3.30;75.70
1405;DHT22;697;51.114;6.542;2023-02-28T08:49:53;3.40;75.60
1405;DHT22;697;51.114;6.542;2023-02-28T08:52:20;3.40;74.70
1405;DHT22;697;51.114;6.542;2023-02-28T08:54:47;3.40;73.80
1405;DHT22;697;51.114;6.542;2023-02-28T08:57:13;3.50;73.70
1405;DHT22;697;51.114;6.542;2023-02-28T08:59:41;3.60;71.90
1405;DHT22;697;51.114;6.542;2023-02-28T09:02:09;3.60;69.50
1405;DHT22;697;51.114;6.542;2023-02-28T09:04:36;3.70;69.60
1405;DHT22;697;51.114;6.542;2023-02-28T09:07:03;3.80;68.60
1405;DHT22;697;51.114;6.542;2023-02-28T09:09:29;3.80;66.30
1405;DHT22;697;51.114;6.542;2023-02-28T09:11:56;3.90;64.60
1405;DHT22;697;51.114;6.542;2023-02-28T09:14:23;3.90;64.50
1405;DHT22;697;51.114;6.542;2023-02-28T09:16:51;4.00;63.00
1405;DHT22;697;51.114;6.542;2023-02-28T09:19:18;4.00;62.90
1405;DHT22;697;51.114;6.542;2023-02-28T09:21:45;4.10;61.60
1405;DHT22;697;51.114;6.542;2023-02-28T09:24:11;4.10;60.20
1405;DHT22;697;51.114;6.542;2023-02-28T09:26:40;4.20;59.70
1405;DHT22;697;51.114;6.542;2023-02-28T09:29:07;4.30;59.50
1405;DHT22;697;51.114;6.542;2023-02-28T09:31:34;4.40;60.20
1405;DHT22;697;51.114;6.542;2023-02-28T09:34:03;4.40;59.40
1405;DHT22;697;51.114;6.542;2023-02-28T09:36:30;4.40;58.90
1405;DHT22;697;51.114;6.542;2023-02-28T09:38:58;4.60;58.50
1405;DHT22;697;51.114;6.542;2023-02-28T09:41:26;4.70;57.70
1405;DHT22;697;51.114;6.542;2023-02-28T09:43:57;4.70;57.10
1405;DHT22;697;51.114;6.542;2023-02-28T09:46:29;4.80;56.50
1405;DHT22;697;51.114;6.542;2023-02-28T09:48:58;4.90;56.50
1405;DHT22;697;51.114;6.542;2023-02-28T09:51:36;5.00;55.50
1405;DHT22;697;51.114;6.542;2023-02-28T09:54:09;5.00;54.30
1405;DHT22;697;51.114;6.542;2023-02-28T09:56:39;5.20;54.60
1405;DHT22;697;51.114;6.542;2023-02-28T09:59:14;5.40;53.80
1405;DHT22;697;51.114;6.542;2023-02-28T10:01:48;5.50;54.00
1405;DHT22;697;51.114;6.542;2023-02-28T10:04:33;5.60;53.00
1405;DHT22;697;51.114;6.542;2023-02-28T10:07:06;5.80;52.30
1405;DHT22;697;51.114;6.542;2023-02-28T10:09:43;6.10;52.20
1405;DHT22;697;51.114;6.542;2023-02-28T10:12:12;6.30;50.50
1405;DHT22;697;51.114;6.542;2023-02-28T10:14:45;6.50;50.10
1405;DHT22;697;51.114;6.542;2023-02-28T10:17:16;6.60;49.70
1405;DHT22;697;51.114;6.542;2023-02-28T10:19:55;6.70;50.20
1405;DHT22;697;51.114;6.542;2023-02-28T10:22:27;6.90;49.40
1405;DHT22;697;51.114;6.542;2023-02-28T10:24:55;7.10;48.80
1405;DHT22;697;51.114;6.542;2023-02-28T10:27:29;7.40;48.90
1405;DHT22;697;51.114;6.542;2023-02-28T10:29:57;7.70;48.10
1405;DHT22;697;51.114;6.542;2023-02-28T10:32:27;8.10;47.40
1405;DHT22;697;51.114;6.542;2023-02-28T10:34:57;8.60;46.30
1405;DHT22;697;51.114;6.542;2023-02-28T10:37:27;9.10;44.80
1405;DHT22;697;51.114;6.542;2023-02-28T10:39:54;9.70;43.60
1405;DHT22;697;51.114;6.542;2023-02-28T10:42:24;10.20;41.20
1405;DHT22;697;51.114;6.542;2023-02-28T10:45:06;10.70;39.50
1405;DHT22;697;51.114;6.542;2023-02-28T10:47:34;11.20;38.30
1405;DHT22;697;51.114;6.542;2023-02-28T10:50:02;11.60;37.00
1405;DHT22;697;51.114;6.542;2023-02-28T10:52:39;12.00;35.70
1405;DHT22;697;51.114;6.542;2023-02-28T10:55:22;12.40;34.50
1405;DHT22;697;51.114;6.542;2023-02-28T10:57:51;12.80;33.90
1405;DHT22;697;51.114;6.542;2023-02-28T11:00:19;13.20;33.00
1405;DHT22;697;51.114;6.542;2023-02-28T11:02:47;13.60;32.50
1405;DHT22;697;51.114;6.542;2023-02-28T11:05:25;13.90;31.40
1405;DHT22;697;51.114;6.542;2023-02-28T11:07:54;14.30;30.30
1405;DHT22;697;51.114;6.542;2023-02-28T11:10:25;14.70;29.70
1405;DHT22;697;51.114;6.542;2023-02-28T11:12:55;15.00;29.10
1405;DHT22;697;51.114;6.542;2023-02-28T11:15:24;15.30;28.70
1405;DHT22;697;51.114;6.542;2023-02-28T11:17:54;15.50;28.00
1405;DHT22;697;51.114;6.542;2023-02-28T11:20:23;15.80;28.10
1405;DHT22;697;51.114;6.542;2023-02-28T11:22:51;16.10;27.80
1405;DHT22;697;51.114;6.542;2023-02-28T11:25:23;16.30;27.00
1405;DHT22;697;51.114;6.542;2023-02-28T11:27:52;16.50;27.00
1405;DHT22;697;51.114;6.542;2023-02-28T11:30:32;16.60;26.60
1405;DHT22;697;51.114;6.542;2023-02-28T11:33:00;16.80;26.70
1405;DHT22;697;51.114;6.542;2023-02-28T11:35:30;17.00;26.10
1405;DHT22;697;51.114;6.542;2023-02-28T11:37:57;17.30;26.40
1405;DHT22;697;51.114;6.542;2023-02-28T11:40:30;17.50;25.90
1405;DHT22;697;51.114;6.542;2023-02-28T11:43:05;17.90;26.10
1405;DHT22;697;51.114;6.542;2023-02-28T11:45:47;18.20;25.30
1405;DHT22;697;51.114;6.542;2023-02-28T11:48:21;18.60;25.10
1405;DHT22;697;51.114;6.542;2023-02-28T11:50:57;18.70;24.90
1405;DHT22;697;51.114;6.542;2023-02-28T11:53:39;19.10;24.50
1405;DHT22;697;51.114;6.542;2023-02-28T11:56:16;19.50;23.70
1405;DHT22;697;51.114;6.542;2023-02-28T11:58:50;19.60;23.30
1405;DHT22;697;51.114;6.542;2023-02-28T12:01:30;19.70;23.20
1405;DHT22;697;51.114;6.542;2023-02-28T12:04:04;19.30;23.40
1405;DHT22;697;51.114;6.542;2023-02-28T12:06:38;19.20;23.90
1405;DHT22;697;51.114;6.542;2023-02-28T12:09:20;19.30;23.50
1405;DHT22;697;51.114;6.542;2023-02-28T12:11:55;19.60;23.50
1405;DHT22;697;51.114;6.542;2023-02-28T12:17:31;19.90;22.90
1405;DHT22;697;51.114;6.542;2023-02-28T12:20:08;20.10;22.00
1405;DHT22;697;51.114;6.542;2023-02-28T12:22:43;20.30;22.30
1405;DHT22;697;51.114;6.542;2023-02-28T12:25:35;20.70;22.00
1405;DHT22;697;51.114;6.542;2023-02-28T12:28:08;21.00;22.30
1405;DHT22;697;51.114;6.542;2023-02-28T12:30:38;21.40;22.50
1405;DHT22;697;51.114;6.542;2023-02-28T12:33:07;21.70;21.40
1405;DHT22;697;51.114;6.542;2023-02-28T12:35:37;21.90;21.30
1405;DHT22;697;51.114;6.542;2023-02-28T12:38:10;22.20;21.30
1405;DHT22;697;51.114;6.542;2023-02-28T12:40:43;22.50;21.40
1405;DHT22;697;51.114;6.542;2023-02-28T12:43:15;22.80;20.90
1405;DHT22;697;51.114;6.542;2023-02-28T12:45:45;23.10;20.50
1405;DHT22;697;51.114;6.542;2023-02-28T12:48:17;23.20;20.20
1405;DHT22;697;51.114;6.542;2023-02-28T12:50:46;23.50;20.40
1405;DHT22;697;51.114;6.542;2023-02-28T12:53:19;23.90;20.40
1405;DHT22;697;51.114;6.542;2023-02-28T12:55:52;24.30;19.90
1405;DHT22;697;51.114;6.542;2023-02-28T12:58:27;24.50;19.80
1405;DHT22;697;51.114;6.542;2023-02-28T13:01:30;24.70;19.20
1405;DHT22;697;51.114;6.542;2023-02-28T13:07:12;25.00;19.10
1405;DHT22;697;51.114;6.542;2023-02-28T13:09:41;25.10;19.20
1405;DHT22;697;51.114;6.542;2023-02-28T13:12:17;25.20;18.80
1405;DHT22;697;51.114;6.542;2023-02-28T13:14:47;25.40;18.50
1405;DHT22;697;51.114;6.542;2023-02-28T13:17:19;25.50;18.30
1405;DHT22;697;51.114;6.542;2023-02-28T13:19:56;25.60;18.40
1405;DHT22;697;51.114;6.542;2023-02-28T13:22:39;25.80;18.70
1405;DHT22;697;51.114;6.542;2023-02-28T13:28:09;26.00;18.60
1405;DHT22;697;51.114;6.542;2023-02-28T13:31:04;26.00;18.60
1405;DHT22;697;51.114;6.542;2023-02-28T13:33:31;26.20;18.60
1405;DHT22;697;51.114;6.542;2023-02-28T13:36:25;26.30;18.40
1405;DHT22;697;51.114;6.542;2023-02-28T13:38:52;26.60;18.30
1405;DHT22;697;51.114;6.542;2023-02-28T13:41:43;26.80;18.00
1405;DHT22;697;51.114;6.542;2023-02-28T13:44:11;27.00;17.50
1405;DHT22;697;51.114;6.542;2023-02-28T13:49:39;27.20;17.90
1405;DHT22;697;51.114;6.542;2023-02-28T13:52:12;27.10;17.50
1405;DHT22;697;51.114;6.542;2023-02-28T13:54:54;27.20;17.30
1405;DHT22;697;51.114;6.542;2023-02-28T13:57:31;27.10;17.40
1405;DHT22;697;51.114;6.542;2023-02-28T14:00:13;26.90;17.90
1405;DHT22;697;51.114;6.542;2023-02-28T14:03:10;27.00;17.70
1405;DHT22;697;51.114;6.542;2023-02-28T14:05:41;26.90;17.70
1405;DHT22;697;51.114;6.542;2023-02-28T14:08:13;26.80;17.60
1405;DHT22;697;51.114;6.542;2023-02-28T14:10:44;26.80;17.70
1405;DHT22;697;51.114;6.542;2023-02-28T14:13:17;26.80;17.90
1405;DHT22;697;51.114;6.542;2023-02-28T14:16:03;26.70;17.90
1405;DHT22;697;51.114;6.542;2023-02-28T14:18:32;26.70;17.80
1405;DHT22;697;51.114;6.542;2023-02-28T14:21:12;26.60;17.80
1405;DHT22;697;51.114;6.542;2023-02-28T14:24:07;26.50;18.10
1405;DHT22;697;51.114;6.542;2023-02-28T14:30:02;26.40;18.40
1405;DHT22;697;51.114;6.542;2023-02-28T14:32:34;26.40;18.50
1405;DHT22;697;51.114;6.542;2023-02-28T14:35:16;26.30;18.60
1405;DHT22;697;51.114;6.542;2023-02-28T14:37:46;26.20;18.60
1405;DHT22;697;51.114;6.542;2023-02-28T14:40:16;26.00;18.50
1405;DHT22;697;51.114;6.542;2023-02-28T14:42:48;25.90;18.70
1405;DHT22;697;51.114;6.542;2023-02-28T14:45:21;25.90;18.50
1405;DHT22;697;51.114;6.542;2023-02-28T14:47:49;25.80;18.40
1405;DHT22;697;51.114;6.542;2023-02-28T14:50:19;25.70;18.40
1405;DHT22;697;51.114;6.542;2023-02-28T14:52:50;25.60;18.80
1405;DHT22;697;51.114;6.542;2023-02-28T14:55:19;25.50;18.50
1405;DHT22;697;51.114;6.542;2023-02-28T14:57:55;25.30;19.00
1405;DHT22;697;51.114;6.542;2023-02-28T15:00:24;25.20;19.20
1405;DHT22;697;51.114;6.542;2023-02-28T15:02:52;25.00;19.30
1405;DHT22;697;51.114;6.542;2023-02-28T15:05:24;24.90;19.20
1405;DHT22;697;51.114;6.542;2023-02-28T15:08:04;24.70;19.80
1405;DHT22;697;51.114;6.542;2023-02-28T15:10:31;24.50;19.80
1405;DHT22;697;51.114;6.542;2023-02-28T15:13:01;24.20;19.30
1405;DHT22;697;51.114;6.542;2023-02-28T15:15:35;23.90;19.90
1405;DHT22;697;51.114;6.542;2023-02-28T15:18:07;23.70;20.10
1405;DHT22;697;51.114;6.542;2023-02-28T15:20:44;23.40;20.30
1405;DHT22;697;51.114;6.542;2023-02-28T15:23:13;23.10;20.80
1405;DHT22;697;51.114;6.542;2023-02-28T15:25:41;23.00;20.90
1405;DHT22;697;51.114;6.542;2023-02-28T15:28:14;22.70;21.20
1405;DHT22;697;51.114;6.542;2023-02-28T15:30:51;22.50;21.00
1405;DHT22;697;51.114;6.542;2023-02-28T15:33:20;22.30;21.20
1405;DHT22;697;51.114;6.542;2023-02-28T15:35:47;22.10;21.10
1405;DHT22;697;51.114;6.542;2023-02-28T15:38:21;21.90;21.60
1405;DHT22;697;51.114;6.542;2023-02-28T15:40:51;21.50;21.80
1405;DHT22;697;51.114;6.542;2023-02-28T15:43:26;21.30;22.30
1405;DHT22;697;51.114;6.542;2023-02-28T15:45:57;21.00;22.60
1405;DHT22;697;51.114;6.542;2023-02-28T15:48:27;20.70;22.10
1405;DHT22;697;51.114;6.542;2023-02-28T15:50:57;20.40;22.00
1405;DHT22;697;51.114;6.542;2023-02-28T15:53:32;20.00;22.60
1405;DHT22;697;51.114;6.542;2023-02-28T15:56:02;19.60;23.20
1405;DHT22;697;51.114;6.542;2023-02-28T15:58:29;19.20;23.40
1405;DHT22;697;51.114;6.542;2023-02-28T16:01:19;18.80;23.40
1405;DHT22;697;51.114;6.542;2023-02-28T16:03:48;18.20;24.30
1405;DHT22;697;51.114;6.542;2023-02-28T16:06:38;17.50;25.10
1405;DHT22;697;51.114;6.542;2023-02-28T16:09:10;16.90;26.00
1405;DHT22;697;51.114;6.542;2023-02-28T16:11:40;16.20;26.70
1405;DHT22;697;51.114;6.542;2023-02-28T16:14:14;15.60;27.30
1405;DHT22;697;51.114;6.542;2023-02-28T16:16:43;15.00;27.70
1405;DHT22;697;51.114;6.542;2023-02-28T16:19:10;14.40;28.50
1405;DHT22;697;51.114;6.542;2023-02-28T16:21:37;13.90;29.50
1405;DHT22;697;51.114;6.542;2023-02-28T16:24:04;13.40;29.70
1405;DHT22;697;51.114;6.542;2023-02-28T16:26:32;13.00;30.10
1405;DHT22;697;51.114;6.542;2023-02-28T16:29:00;12.60;30.90
1405;DHT22;697;51.114;6.542;2023-02-28T16:31:28;12.40;31.50
1405;DHT22;697;51.114;6.542;2023-02-28T16:33:55;12.10;32.80
1405;DHT22;697;51.114;6.542;2023-02-28T16:36:23;11.80;33.40
1405;DHT22;697;51.114;6.542;2023-02-28T16:38:51;11.60;33.90
1405;DHT22;697;51.114;6.542;2023-02-28T16:41:20;11.40;34.20
1405;DHT22;697;51.114;6.542;2023-02-28T16:43:50;11.10;34.90
1405;DHT22;697;51.114;6.542;2023-02-28T16:46:18;10.90;35.30
1405;DHT22;697;51.114;6.542;2023-02-28T16:48:46;10.80;35.10
1405;DHT22;697;51.114;6.542;2023-02-28T16:51:15;10.70;35.40
1405;DHT22;697;51.114;6.542;2023-02-28T16:53:42;10.50;36.30
1405;DHT22;697;51.114;6.542;2023-02-28T16:56:15;10.40;36.90
1405;DHT22;697;51.114;6.542;2023-02-28T16:58:43;10.20;37.40
1405;DHT22;697;51.114;6.542;2023-02-28T17:01:11;10.10;37.20
1405;DHT22;697;51.114;6.542;2023-02-28T17:03:38;10.00;37.30
1405;DHT22;697;51.114;6.542;2023-02-28T17:06:06;9.90;39.80
1405;DHT22;697;51.114;6.542;2023-02-28T17:08:33;9.80;39.60